Hauptseite
METAR-TAF:

METAR-TAF

Flughäfen :

Topcliffe, England

Breite: 54-12N, Länge: 001-23W, Höhe: 28 m

Beobachtung

Neuester Wetterbericht von vor 47 Minuten, um 17:50 UTC
Wind 7 kt aus Süd/Südost
Temperatur 9°C
Luftfeuchtigkeit 81%
Luftdruck 1005 hPa
Sichtweite 10 km oder mehr

METAR: EGXZ 121750Z AUTO 15007KT 9999 BKN150/// 09/06 Q1005

Zeit: 18:37 (18:37 UTC)

Prognose

Neuester Wetterbericht von vor 5 Stunden und 22 Minuten, um 13:15 UTC
Gültige Prognose vom 12 um 15 UTC bis 12 um 19 UTC
Wind 12 kt aus Süd
Sichtweite 10 km oder mehr
Leicht bewölkt in der Höhe von 2500 ft
Wahrscheinlichkeit 30% :
Zeitweise
vom 12 um 15 UTC bis 12 um 19 UTC
Wind 15 kt aus Süd, Böen bis zu 25 kt
Sichtweite: 7000 m
Aufgelockert bewölkt in der Höhe von 2400 ft, Kumulonimbus.
Regenschauer

TAF: EGXZ 121315Z 1215/1219 18012KT 9999 FEW025 PROB30 TEMPO 1215/1219 19015G25KT 7000 SHRA SCT024CB

Wetterbeobachtungen und Prognosen von mehr als 4000 Flughäfen (METAR und TAF Bericht).

Die verfügbaren Stationen werden durch gelbe und rote Markierungen auf der Karte dargestellt.

Führen Sie die Maus auf sie, um den Namen der Station zu sehen.

Darauf klicken, um die Beobachtung von Wetterbeobachtungen und Prognosen zu sehen.

Um die Karte zu ändern : klicken Sie auf den grünen Tasten mit einem schwarzen Kreuz Zum Vergrößern, auf den grünen Button mit einem Gedankenstrich zu verkleinern, oder auf die grünen Pfeile für benachbarte Karten.


METAR-TAF: